sensor_id;sensor_type;location;lat;lon;timestamp;pressure;altitude;pressure_sealevel;temperature;humidity
9009;BME280;62813;51.424;6.762;2022-08-21T00:02:17;101457.06;;;19.76;63.96
9009;BME280;62813;51.424;6.762;2022-08-21T00:04:45;101459.81;;;19.74;64.15
9009;BME280;62813;51.424;6.762;2022-08-21T00:07:22;101461.06;;;19.69;64.78
9009;BME280;62813;51.424;6.762;2022-08-21T00:09:51;101455.13;;;19.65;64.69
9009;BME280;62813;51.424;6.762;2022-08-21T00:12:18;101450.31;;;19.59;65.50
9009;BME280;62813;51.424;6.762;2022-08-21T00:14:44;101450.72;;;19.53;65.72
9009;BME280;62813;51.424;6.762;2022-08-21T00:17:12;101451.69;;;19.52;65.98
9009;BME280;62813;51.424;6.762;2022-08-21T00:19:38;101454.09;;;19.55;65.97
9009;BME280;62813;51.424;6.762;2022-08-21T00:22:05;101451.34;;;19.56;66.30
9009;BME280;62813;51.424;6.762;2022-08-21T00:24:32;101447.03;;;19.55;66.28
9009;BME280;62813;51.424;6.762;2022-08-21T00:26:58;101442.19;;;19.49;66.37
9009;BME280;62813;51.424;6.762;2022-08-21T00:29:25;101436.47;;;19.43;67.00
9009;BME280;62813;51.424;6.762;2022-08-21T00:31:51;101434.25;;;19.36;67.02
9009;BME280;62813;51.424;6.762;2022-08-21T00:34:18;101436.97;;;19.35;66.92
9009;BME280;62813;51.424;6.762;2022-08-21T00:36:45;101428.50;;;19.30;67.19
9009;BME280;62813;51.424;6.762;2022-08-21T00:39:11;101428.28;;;19.20;67.88
9009;BME280;62813;51.424;6.762;2022-08-21T00:41:39;101435.47;;;19.18;67.71
9009;BME280;62813;51.424;6.762;2022-08-21T00:44:10;101437.44;;;19.15;67.87
9009;BME280;62813;51.424;6.762;2022-08-21T00:46:38;101439.34;;;19.13;67.82
9009;BME280;62813;51.424;6.762;2022-08-21T00:49:06;101430.69;;;19.11;68.06
9009;BME280;62813;51.424;6.762;2022-08-21T00:51:40;101431.53;;;19.11;67.89
9009;BME280;62813;51.424;6.762;2022-08-21T00:54:09;101430.03;;;19.07;68.09
9009;BME280;62813;51.424;6.762;2022-08-21T00:56:48;101425.72;;;19.06;68.44
9009;BME280;62813;51.424;6.762;2022-08-21T00:59:18;101422.16;;;19.07;67.92
9009;BME280;62813;51.424;6.762;2022-08-21T01:01:46;101419.63;;;19.05;67.83
9009;BME280;62813;51.424;6.762;2022-08-21T01:04:13;101422.75;;;18.98;68.55
9009;BME280;62813;51.424;6.762;2022-08-21T01:06:42;101418.75;;;18.92;67.80
9009;BME280;62813;51.424;6.762;2022-08-21T01:09:09;101423.78;;;18.83;68.21
9009;BME280;62813;51.424;6.762;2022-08-21T01:11:36;101422.88;;;18.69;69.05
9009;BME280;62813;51.424;6.762;2022-08-21T01:14:03;101423.25;;;18.63;69.35
9009;BME280;62813;51.424;6.762;2022-08-21T01:16:30;101428.50;;;18.63;68.98
9009;BME280;62813;51.424;6.762;2022-08-21T01:18:57;101431.53;;;18.57;69.04
9009;BME280;62813;51.424;6.762;2022-08-21T01:21:25;101429.28;;;18.51;69.27
9009;BME280;62813;51.424;6.762;2022-08-21T01:23:55;101431.34;;;18.46;69.35
9009;BME280;62813;51.424;6.762;2022-08-21T01:26:26;101432.84;;;18.36;69.79
9009;BME280;62813;51.424;6.762;2022-08-21T01:29:11;101434.38;;;18.25;70.47
9009;BME280;62813;51.424;6.762;2022-08-21T01:31:39;101434.56;;;18.22;70.21
9009;BME280;62813;51.424;6.762;2022-08-21T01:34:06;101425.84;;;18.22;70.84
9009;BME280;62813;51.424;6.762;2022-08-21T01:36:34;101436.44;;;18.20;70.44
9009;BME280;62813;51.424;6.762;2022-08-21T01:39:03;101441.88;;;18.17;70.87
9009;BME280;62813;51.424;6.762;2022-08-21T01:41:30;101440.66;;;18.09;70.79
9009;BME280;62813;51.424;6.762;2022-08-21T01:43:57;101436.56;;;18.05;70.89
9009;BME280;62813;51.424;6.762;2022-08-21T01:46:24;101436.06;;;17.98;71.28
9009;BME280;62813;51.424;6.762;2022-08-21T01:48:50;101428.66;;;17.90;71.58
9009;BME280;62813;51.424;6.762;2022-08-21T01:51:17;101438.34;;;17.90;71.49
9009;BME280;62813;51.424;6.762;2022-08-21T01:53:43;101432.59;;;17.83;71.53
9009;BME280;62813;51.424;6.762;2022-08-21T01:56:12;101438.13;;;17.79;72.24
9009;BME280;62813;51.424;6.762;2022-08-21T01:58:41;101431.56;;;17.71;72.47
9009;BME280;62813;51.424;6.762;2022-08-21T02:01:08;101433.50;;;17.68;72.42
9009;BME280;62813;51.424;6.762;2022-08-21T02:03:36;101432.84;;;17.64;72.47
9009;BME280;62813;51.424;6.762;2022-08-21T02:06:05;101437.34;;;17.62;72.94
9009;BME280;62813;51.424;6.762;2022-08-21T02:08:36;101433.22;;;17.58;72.80
9009;BME280;62813;51.424;6.762;2022-08-21T02:11:02;101430.78;;;17.55;73.41
9009;BME280;62813;51.424;6.762;2022-08-21T02:13:29;101427.97;;;17.58;72.96
9009;BME280;62813;51.424;6.762;2022-08-21T02:15:55;101423.88;;;17.68;73.09
9009;BME280;62813;51.424;6.762;2022-08-21T02:18:22;101425.84;;;17.79;72.91
9009;BME280;62813;51.424;6.762;2022-08-21T02:20:50;101426.09;;;17.89;72.01
9009;BME280;62813;51.424;6.762;2022-08-21T02:23:23;101419.66;;;17.94;71.98
9009;BME280;62813;51.424;6.762;2022-08-21T02:26:02;101422.84;;;17.99;71.67
9009;BME280;62813;51.424;6.762;2022-08-21T02:28:29;101421.63;;;18.05;71.48
9009;BME280;62813;51.424;6.762;2022-08-21T02:30:56;101420.47;;;18.09;71.65
9009;BME280;62813;51.424;6.762;2022-08-21T02:33:24;101418.63;;;18.11;71.11
9009;BME280;62813;51.424;6.762;2022-08-21T02:35:52;101421.06;;;18.14;70.81
9009;BME280;62813;51.424;6.762;2022-08-21T02:38:23;101424.63;;;18.13;70.66
9009;BME280;62813;51.424;6.762;2022-08-21T02:40:51;101420.22;;;18.14;70.71
9009;BME280;62813;51.424;6.762;2022-08-21T02:43:20;101417.47;;;18.15;70.41
9009;BME280;62813;51.424;6.762;2022-08-21T02:45:48;101419.38;;;18.13;70.87
9009;BME280;62813;51.424;6.762;2022-08-21T02:48:18;101410.75;;;18.11;70.58
9009;BME280;62813;51.424;6.762;2022-08-21T02:50:54;101410.81;;;18.10;70.84
9009;BME280;62813;51.424;6.762;2022-08-21T02:53:21;101417.97;;;18.08;70.40
9009;BME280;62813;51.424;6.762;2022-08-21T02:55:50;101417.13;;;18.07;70.39
9009;BME280;62813;51.424;6.762;2022-08-21T02:58:21;101422.56;;;18.04;70.32
9009;BME280;62813;51.424;6.762;2022-08-21T03:00:48;101418.44;;;18.00;70.87
9009;BME280;62813;51.424;6.762;2022-08-21T03:03:16;101417.75;;;17.96;70.89
9009;BME280;62813;51.424;6.762;2022-08-21T03:05:43;101416.19;;;17.94;70.46
9009;BME280;62813;51.424;6.762;2022-08-21T03:08:12;101418.16;;;17.90;71.02
9009;BME280;62813;51.424;6.762;2022-08-21T03:10:41;101415.59;;;17.89;71.06
9009;BME280;62813;51.424;6.762;2022-08-21T03:13:09;101409.63;;;17.87;70.67
9009;BME280;62813;51.424;6.762;2022-08-21T03:15:36;101407.19;;;17.84;70.56
9009;BME280;62813;51.424;6.762;2022-08-21T03:18:04;101406.34;;;17.83;71.08
9009;BME280;62813;51.424;6.762;2022-08-21T03:20:32;101411.66;;;17.82;70.95
9009;BME280;62813;51.424;6.762;2022-08-21T03:23:00;101414.28;;;17.82;70.72
9009;BME280;62813;51.424;6.762;2022-08-21T03:25:38;101411.59;;;17.83;70.97
9009;BME280;62813;51.424;6.762;2022-08-21T03:28:09;101409.88;;;17.82;70.67
9009;BME280;62813;51.424;6.762;2022-08-21T03:30:44;101409.50;;;17.74;70.79
9009;BME280;62813;51.424;6.762;2022-08-21T03:33:11;101409.81;;;17.69;71.37
9009;BME280;62813;51.424;6.762;2022-08-21T03:35:43;101408.47;;;17.62;71.42
9009;BME280;62813;51.424;6.762;2022-08-21T03:38:11;101411.16;;;17.61;71.19
9009;BME280;62813;51.424;6.762;2022-08-21T03:40:41;101423.66;;;17.57;71.55
9009;BME280;62813;51.424;6.762;2022-08-21T03:43:08;101412.22;;;17.58;71.34
9009;BME280;62813;51.424;6.762;2022-08-21T03:45:36;101406.31;;;17.55;71.74
9009;BME280;62813;51.424;6.762;2022-08-21T03:48:04;101413.41;;;17.53;71.82
9009;BME280;62813;51.424;6.762;2022-08-21T03:50:36;101409.94;;;17.52;72.01
9009;BME280;62813;51.424;6.762;2022-08-21T03:53:07;101415.03;;;17.55;72.13
9009;BME280;62813;51.424;6.762;2022-08-21T03:55:42;101417.81;;;17.52;71.86
9009;BME280;62813;51.424;6.762;2022-08-21T03:58:09;101417.19;;;17.49;72.16
9009;BME280;62813;51.424;6.762;2022-08-21T04:00:47;101414.81;;;17.44;72.40
9009;BME280;62813;51.424;6.762;2022-08-21T04:03:14;101421.16;;;17.40;72.35
9009;BME280;62813;51.424;6.762;2022-08-21T04:05:42;101428.88;;;17.43;72.29
9009;BME280;62813;51.424;6.762;2022-08-21T04:08:12;101429.53;;;17.47;71.97
9009;BME280;62813;51.424;6.762;2022-08-21T04:10:40;101432.09;;;17.48;71.90
9009;BME280;62813;51.424;6.762;2022-08-21T04:13:08;101437.13;;;17.51;72.21
9009;BME280;62813;51.424;6.762;2022-08-21T04:15:34;101440.69;;;17.50;71.76
9009;BME280;62813;51.424;6.762;2022-08-21T04:18:02;101444.06;;;17.52;72.30
9009;BME280;62813;51.424;6.762;2022-08-21T04:20:29;101445.94;;;17.50;71.73
9009;BME280;62813;51.424;6.762;2022-08-21T04:22:55;101444.16;;;17.51;71.94
9009;BME280;62813;51.424;6.762;2022-08-21T04:25:23;101439.00;;;17.49;71.71
9009;BME280;62813;51.424;6.762;2022-08-21T04:27:52;101437.34;;;17.48;71.29
9009;BME280;62813;51.424;6.762;2022-08-21T04:30:19;101432.09;;;17.48;71.76
9009;BME280;62813;51.424;6.762;2022-08-21T04:32:54;101439.00;;;17.49;71.58
9009;BME280;62813;51.424;6.762;2022-08-21T04:35:23;101442.75;;;17.45;71.74
9009;BME280;62813;51.424;6.762;2022-08-21T04:37:50;101437.69;;;17.42;71.88
9009;BME280;62813;51.424;6.762;2022-08-21T04:40:19;101436.00;;;17.41;71.68
9009;BME280;62813;51.424;6.762;2022-08-21T04:42:49;101431.66;;;17.40;71.83
9009;BME280;62813;51.424;6.762;2022-08-21T04:47:50;101433.59;;;17.36;72.14
9009;BME280;62813;51.424;6.762;2022-08-21T04:50:19;101431.72;;;17.38;72.27
9009;BME280;62813;51.424;6.762;2022-08-21T04:52:46;101436.06;;;17.39;72.25
9009;BME280;62813;51.424;6.762;2022-08-21T04:55:15;101439.47;;;17.41;72.09
9009;BME280;62813;51.424;6.762;2022-08-21T04:57:42;101432.44;;;17.42;72.10
9009;BME280;62813;51.424;6.762;2022-08-21T05:00:15;101444.63;;;17.43;71.88
9009;BME280;62813;51.424;6.762;2022-08-21T05:02:45;101445.56;;;17.42;72.19
9009;BME280;62813;51.424;6.762;2022-08-21T05:05:15;101439.19;;;17.46;71.74
9009;BME280;62813;51.424;6.762;2022-08-21T05:07:44;101439.00;;;17.49;71.86
9009;BME280;62813;51.424;6.762;2022-08-21T05:10:12;101442.59;;;17.48;71.73
9009;BME280;62813;51.424;6.762;2022-08-21T05:12:41;101442.19;;;17.54;71.79
9009;BME280;62813;51.424;6.762;2022-08-21T05:15:10;101439.41;;;17.57;71.71
9009;BME280;62813;51.424;6.762;2022-08-21T05:17:41;101441.56;;;17.65;71.36
9009;BME280;62813;51.424;6.762;2022-08-21T05:20:09;101449.25;;;17.68;71.46
9009;BME280;62813;51.424;6.762;2022-08-21T05:22:37;101451.72;;;17.71;70.97
9009;BME280;62813;51.424;6.762;2022-08-21T05:25:05;101452.28;;;17.76;70.74
9009;BME280;62813;51.424;6.762;2022-08-21T05:27:37;101452.78;;;17.83;70.36
9009;BME280;62813;51.424;6.762;2022-08-21T05:30:06;101455.56;;;17.94;70.13
9009;BME280;62813;51.424;6.762;2022-08-21T05:32:34;101460.25;;;18.03;70.16
9009;BME280;62813;51.424;6.762;2022-08-21T05:35:03;101453.69;;;18.10;69.75
9009;BME280;62813;51.424;6.762;2022-08-21T05:37:30;101457.63;;;18.17;69.38
9009;BME280;62813;51.424;6.762;2022-08-21T05:39:56;101453.78;;;18.23;69.09
9009;BME280;62813;51.424;6.762;2022-08-21T05:42:44;101450.03;;;18.27;68.86
9009;BME280;62813;51.424;6.762;2022-08-21T05:45:23;101447.88;;;18.34;68.63
9009;BME280;62813;51.424;6.762;2022-08-21T05:48:12;101450.13;;;18.40;68.06
9009;BME280;62813;51.424;6.762;2022-08-21T05:50:39;101447.91;;;18.48;67.81
9009;BME280;62813;51.424;6.762;2022-08-21T05:53:06;101446.56;;;18.55;67.73
9009;BME280;62813;51.424;6.762;2022-08-21T05:55:35;101444.50;;;18.60;66.80
9009;BME280;62813;51.424;6.762;2022-08-21T05:58:09;101450.84;;;18.70;66.81
9009;BME280;62813;51.424;6.762;2022-08-21T06:00:37;101450.25;;;18.79;66.38
9009;BME280;62813;51.424;6.762;2022-08-21T06:03:03;101452.31;;;18.89;65.48
9009;BME280;62813;51.424;6.762;2022-08-21T06:05:30;101449.06;;;18.98;65.49
9009;BME280;62813;51.424;6.762;2022-08-21T06:08:03;101449.53;;;19.04;65.38
9009;BME280;62813;51.424;6.762;2022-08-21T06:10:32;101445.44;;;19.13;64.92
9009;BME280;62813;51.424;6.762;2022-08-21T06:12:59;101445.22;;;19.16;64.77
9009;BME280;62813;51.424;6.762;2022-08-21T06:15:26;101448.94;;;19.26;63.25
9009;BME280;62813;51.424;6.762;2022-08-21T06:17:53;101450.53;;;19.29;63.33
9009;BME280;62813;51.424;6.762;2022-08-21T06:20:20;101449.75;;;19.41;62.56
9009;BME280;62813;51.424;6.762;2022-08-21T06:22:47;101457.00;;;19.38;61.89
9009;BME280;62813;51.424;6.762;2022-08-21T06:25:14;101453.66;;;19.48;61.42
9009;BME280;62813;51.424;6.762;2022-08-21T06:27:41;101457.78;;;19.52;61.36
9009;BME280;62813;51.424;6.762;2022-08-21T06:30:08;101455.03;;;19.54;61.34
9009;BME280;62813;51.424;6.762;2022-08-21T06:32:35;101462.84;;;19.55;61.11
9009;BME280;62813;51.424;6.762;2022-08-21T06:35:03;101457.78;;;19.65;60.83
9009;BME280;62813;51.424;6.762;2022-08-21T06:37:31;101458.63;;;19.66;60.74
9009;BME280;62813;51.424;6.762;2022-08-21T06:39:58;101459.69;;;19.63;60.32
9009;BME280;62813;51.424;6.762;2022-08-21T06:42:25;101460.00;;;19.71;60.52
9009;BME280;62813;51.424;6.762;2022-08-21T06:44:53;101462.09;;;19.79;59.74
9009;BME280;62813;51.424;6.762;2022-08-21T06:47:20;101465.50;;;19.81;59.86
9009;BME280;62813;51.424;6.762;2022-08-21T06:49:47;101456.22;;;19.88;59.39
9009;BME280;62813;51.424;6.762;2022-08-21T06:52:15;101455.16;;;19.90;59.13
9009;BME280;62813;51.424;6.762;2022-08-21T06:54:42;101462.13;;;19.91;58.96
9009;BME280;62813;51.424;6.762;2022-08-21T06:57:09;101450.31;;;19.97;58.95
9009;BME280;62813;51.424;6.762;2022-08-21T06:59:35;101447.16;;;20.05;59.20
9009;BME280;62813;51.424;6.762;2022-08-21T07:02:02;101448.81;;;20.06;58.36
9009;BME280;62813;51.424;6.762;2022-08-21T07:04:29;101448.41;;;20.12;58.81
9009;BME280;62813;51.424;6.762;2022-08-21T07:06:56;101454.50;;;20.25;58.21
9009;BME280;62813;51.424;6.762;2022-08-21T07:09:23;101442.84;;;20.29;58.20
9009;BME280;62813;51.424;6.762;2022-08-21T07:11:52;101448.00;;;20.31;58.37
9009;BME280;62813;51.424;6.762;2022-08-21T07:14:20;101447.22;;;20.41;57.88
9009;BME280;62813;51.424;6.762;2022-08-21T07:16:47;101453.97;;;20.45;57.99
9009;BME280;62813;51.424;6.762;2022-08-21T07:19:14;101453.00;;;20.47;57.60
9009;BME280;62813;51.424;6.762;2022-08-21T07:21:41;101449.72;;;20.56;57.58
9009;BME280;62813;51.424;6.762;2022-08-21T07:24:08;101445.81;;;20.61;56.62
9009;BME280;62813;51.424;6.762;2022-08-21T07:26:35;101444.53;;;20.67;56.68
9009;BME280;62813;51.424;6.762;2022-08-21T07:29:02;101444.22;;;20.59;56.84
9009;BME280;62813;51.424;6.762;2022-08-21T07:31:29;101442.84;;;20.66;56.89
9009;BME280;62813;51.424;6.762;2022-08-21T07:33:56;101447.03;;;20.68;56.64
9009;BME280;62813;51.424;6.762;2022-08-21T07:36:23;101445.13;;;20.70;56.37
9009;BME280;62813;51.424;6.762;2022-08-21T07:38:50;101446.19;;;20.68;56.28
9009;BME280;62813;51.424;6.762;2022-08-21T07:41:24;101452.72;;;20.75;56.28
9009;BME280;62813;51.424;6.762;2022-08-21T07:43:52;101456.31;;;20.74;55.65
9009;BME280;62813;51.424;6.762;2022-08-21T07:46:19;101449.84;;;20.78;55.51
9009;BME280;62813;51.424;6.762;2022-08-21T07:48:46;101452.03;;;20.84;55.43
9009;BME280;62813;51.424;6.762;2022-08-21T07:51:15;101449.69;;;20.92;53.90
9009;BME280;62813;51.424;6.762;2022-08-21T07:53:48;101455.81;;;20.93;53.48
9009;BME280;62813;51.424;6.762;2022-08-21T07:56:16;101449.22;;;20.98;53.23
9009;BME280;62813;51.424;6.762;2022-08-21T07:58:43;101446.66;;;21.10;52.65
9009;BME280;62813;51.424;6.762;2022-08-21T08:01:10;101442.94;;;21.12;52.66
9009;BME280;62813;51.424;6.762;2022-08-21T08:03:37;101434.84;;;21.15;53.40
9009;BME280;62813;51.424;6.762;2022-08-21T08:06:06;101432.59;;;21.22;52.95
9009;BME280;62813;51.424;6.762;2022-08-21T08:08:34;101430.78;;;21.22;52.50
9009;BME280;62813;51.424;6.762;2022-08-21T08:11:01;101428.63;;;21.27;52.79
9009;BME280;62813;51.424;6.762;2022-08-21T08:13:28;101434.41;;;21.33;52.13
9009;BME280;62813;51.424;6.762;2022-08-21T08:15:55;101433.59;;;21.43;51.63
9009;BME280;62813;51.424;6.762;2022-08-21T08:18:21;101430.00;;;21.44;51.56
9009;BME280;62813;51.424;6.762;2022-08-21T08:20:48;101430.72;;;21.46;51.91
9009;BME280;62813;51.424;6.762;2022-08-21T08:23:15;101431.22;;;21.51;51.42
9009;BME280;62813;51.424;6.762;2022-08-21T08:25:42;101438.44;;;21.61;51.10
9009;BME280;62813;51.424;6.762;2022-08-21T08:28:08;101436.28;;;21.66;51.45
9009;BME280;62813;51.424;6.762;2022-08-21T08:30:44;101435.81;;;21.72;51.47
9009;BME280;62813;51.424;6.762;2022-08-21T08:33:12;101439.19;;;21.74;51.03
9009;BME280;62813;51.424;6.762;2022-08-21T08:35:38;101442.66;;;21.74;50.81
9009;BME280;62813;51.424;6.762;2022-08-21T08:38:07;101437.63;;;21.82;51.27
9009;BME280;62813;51.424;6.762;2022-08-21T08:40:43;101436.38;;;21.99;50.73
9009;BME280;62813;51.424;6.762;2022-08-21T08:43:13;101437.31;;;22.09;50.45
9009;BME280;62813;51.424;6.762;2022-08-21T08:45:44;101435.28;;;22.13;49.85
9009;BME280;62813;51.424;6.762;2022-08-21T08:48:14;101433.31;;;22.26;50.54
9009;BME280;62813;51.424;6.762;2022-08-21T08:50:48;101424.81;;;22.34;50.05
9009;BME280;62813;51.424;6.762;2022-08-21T08:53:21;101421.91;;;22.48;49.80
9009;BME280;62813;51.424;6.762;2022-08-21T08:55:51;101419.06;;;22.61;49.81
9009;BME280;62813;51.424;6.762;2022-08-21T08:58:23;101423.31;;;22.52;49.66
9009;BME280;62813;51.424;6.762;2022-08-21T09:00:52;101424.69;;;22.35;49.29
9009;BME280;62813;51.424;6.762;2022-08-21T09:03:21;101423.75;;;22.14;50.20
9009;BME280;62813;51.424;6.762;2022-08-21T09:05:56;101422.66;;;22.05;50.82
9009;BME280;62813;51.424;6.762;2022-08-21T09:09:00;101416.63;;;22.03;51.52
9009;BME280;62813;51.424;6.762;2022-08-21T09:11:37;101420.97;;;22.16;50.73
9009;BME280;62813;51.424;6.762;2022-08-21T09:14:27;101413.75;;;22.18;50.70
9009;BME280;62813;51.424;6.762;2022-08-21T09:17:22;101416.25;;;22.19;50.51
9009;BME280;62813;51.424;6.762;2022-08-21T09:20:28;101403.28;;;22.27;50.24
9009;BME280;62813;51.424;6.762;2022-08-21T09:23:25;101403.66;;;22.34;50.08
9009;BME280;62813;51.424;6.762;2022-08-21T09:28:31;101408.53;;;22.50;49.79
9009;BME280;62813;51.424;6.762;2022-08-21T09:30:58;101406.38;;;22.55;49.51
9009;BME280;62813;51.424;6.762;2022-08-21T09:33:28;101403.25;;;22.50;49.59
9009;BME280;62813;51.424;6.762;2022-08-21T09:35:56;101401.09;;;22.55;49.31
9009;BME280;62813;51.424;6.762;2022-08-21T09:38:32;101398.66;;;22.52;49.64
9009;BME280;62813;51.424;6.762;2022-08-21T09:41:09;101405.28;;;22.57;49.47
9009;BME280;62813;51.424;6.762;2022-08-21T09:43:37;101391.81;;;22.49;48.96
9009;BME280;62813;51.424;6.762;2022-08-21T09:46:22;101397.47;;;22.56;48.88
9009;BME280;62813;51.424;6.762;2022-08-21T09:48:54;101399.22;;;22.67;49.11
9009;BME280;62813;51.424;6.762;2022-08-21T09:51:32;101399.81;;;22.70;48.24
9009;BME280;62813;51.424;6.762;2022-08-21T09:54:14;101404.72;;;22.86;48.08
9009;BME280;62813;51.424;6.762;2022-08-21T09:56:55;101398.53;;;22.97;48.51
9009;BME280;62813;51.424;6.762;2022-08-21T09:59:42;101402.69;;;23.10;48.38
9009;BME280;62813;51.424;6.762;2022-08-21T10:02:35;101394.41;;;23.25;47.89
9009;BME280;62813;51.424;6.762;2022-08-21T10:05:07;101392.69;;;23.35;47.26
9009;BME280;62813;51.424;6.762;2022-08-21T10:07:37;101392.88;;;23.43;47.38
9009;BME280;62813;51.424;6.762;2022-08-21T10:10:15;101392.75;;;23.44;47.16
9009;BME280;62813;51.424;6.762;2022-08-21T10:15:54;101383.25;;;23.42;47.87
9009;BME280;62813;51.424;6.762;2022-08-21T10:21:35;101375.81;;;23.36;46.59
9009;BME280;62813;51.424;6.762;2022-08-21T10:24:25;101375.50;;;23.29;46.70
9009;BME280;62813;51.424;6.762;2022-08-21T10:27:09;101374.84;;;23.37;47.12
9009;BME280;62813;51.424;6.762;2022-08-21T10:40:37;101369.41;;;23.59;46.53
9009;BME280;62813;51.424;6.762;2022-08-21T10:43:24;101362.44;;;23.58;46.53
9009;BME280;62813;51.424;6.762;2022-08-21T10:48:58;101367.53;;;23.71;46.42
9009;BME280;62813;51.424;6.762;2022-08-21T10:51:46;101370.88;;;23.73;46.92
9009;BME280;62813;51.424;6.762;2022-08-21T10:57:27;101358.56;;;23.93;45.81
9009;BME280;62813;51.424;6.762;2022-08-21T11:00:05;101371.94;;;23.91;45.24
9009;BME280;62813;51.424;6.762;2022-08-21T11:03:04;101366.06;;;23.88;46.05
9009;BME280;62813;51.424;6.762;2022-08-21T11:05:52;101357.03;;;24.00;45.34
9009;BME280;62813;51.424;6.762;2022-08-21T11:08:41;101359.84;;;23.98;45.63
9009;BME280;62813;51.424;6.762;2022-08-21T11:11:18;101362.09;;;24.03;45.64
9009;BME280;62813;51.424;6.762;2022-08-21T11:13:57;101368.34;;;24.02;44.87
9009;BME280;62813;51.424;6.762;2022-08-21T11:17:07;101368.63;;;23.99;45.17
9009;BME280;62813;51.424;6.762;2022-08-21T11:19:45;101369.38;;;23.80;45.39
9009;BME280;62813;51.424;6.762;2022-08-21T11:25:00;101374.75;;;23.99;44.32
9009;BME280;62813;51.424;6.762;2022-08-21T11:30:07;101361.41;;;24.20;43.69
9009;BME280;62813;51.424;6.762;2022-08-21T11:35:46;101361.88;;;24.25;43.87
9009;BME280;62813;51.424;6.762;2022-08-21T11:43:46;101356.44;;;24.37;43.69
9009;BME280;62813;51.424;6.762;2022-08-21T11:46:22;101357.28;;;24.37;44.06
9009;BME280;62813;51.424;6.762;2022-08-21T11:54:31;101348.13;;;24.61;42.86
9009;BME280;62813;51.424;6.762;2022-08-21T11:57:19;101357.06;;;24.69;43.45
9009;BME280;62813;51.424;6.762;2022-08-21T11:59:59;101352.28;;;24.73;42.94
9009;BME280;62813;51.424;6.762;2022-08-21T12:02:34;101347.84;;;24.73;42.78
9009;BME280;62813;51.424;6.762;2022-08-21T12:05:05;101344.72;;;24.59;43.82
9009;BME280;62813;51.424;6.762;2022-08-21T12:07:40;101346.16;;;24.63;43.59
9009;BME280;62813;51.424;6.762;2022-08-21T12:10:10;101341.81;;;24.71;43.12
9009;BME280;62813;51.424;6.762;2022-08-21T12:12:40;101343.78;;;24.69;42.89
9009;BME280;62813;51.424;6.762;2022-08-21T12:17:50;101338.75;;;24.66;42.37
9009;BME280;62813;51.424;6.762;2022-08-21T12:20:26;101349.50;;;24.45;43.25
9009;BME280;62813;51.424;6.762;2022-08-21T12:23:04;101344.19;;;24.55;43.28
9009;BME280;62813;51.424;6.762;2022-08-21T12:28:12;101341.78;;;24.42;42.14
9009;BME280;62813;51.424;6.762;2022-08-21T12:30:44;101338.75;;;24.47;42.54
9009;BME280;62813;51.424;6.762;2022-08-21T12:33:21;101349.50;;;24.55;42.56
9009;BME280;62813;51.424;6.762;2022-08-21T12:35:51;101344.63;;;24.60;42.02
9009;BME280;62813;51.424;6.762;2022-08-21T12:38:23;101348.78;;;24.72;42.29
9009;BME280;62813;51.424;6.762;2022-08-21T12:41:00;101339.84;;;24.83;41.59
9009;BME280;62813;51.424;6.762;2022-08-21T12:43:34;101338.88;;;24.84;41.74
9009;BME280;62813;51.424;6.762;2022-08-21T12:46:02;101343.59;;;25.00;41.71
9009;BME280;62813;51.424;6.762;2022-08-21T12:48:44;101338.28;;;25.00;41.37
9009;BME280;62813;51.424;6.762;2022-08-21T12:51:17;101336.34;;;25.12;41.47
9009;BME280;62813;51.424;6.762;2022-08-21T12:53:47;101332.56;;;25.14;41.95
9009;BME280;62813;51.424;6.762;2022-08-21T12:56:17;101341.09;;;25.08;42.61
9009;BME280;62813;51.424;6.762;2022-08-21T12:58:53;101332.00;;;25.01;41.42
9009;BME280;62813;51.424;6.762;2022-08-21T13:01:25;101323.75;;;24.94;41.55
9009;BME280;62813;51.424;6.762;2022-08-21T13:03:55;101331.31;;;24.79;41.17
9009;BME280;62813;51.424;6.762;2022-08-21T13:06:37;101327.41;;;24.93;41.87
9009;BME280;62813;51.424;6.762;2022-08-21T13:09:07;101320.13;;;25.15;41.53
9009;BME280;62813;51.424;6.762;2022-08-21T13:11:34;101326.13;;;25.26;41.94
9009;BME280;62813;51.424;6.762;2022-08-21T13:14:03;101334.03;;;25.46;41.16
9009;BME280;62813;51.424;6.762;2022-08-21T13:16:31;101324.53;;;25.80;41.03
9009;BME280;62813;51.424;6.762;2022-08-21T13:19:06;101319.28;;;26.16;40.36
9009;BME280;62813;51.424;6.762;2022-08-21T13:21:39;101321.94;;;26.43;39.80
9009;BME280;62813;51.424;6.762;2022-08-21T13:24:30;101317.97;;;26.65;38.70
9009;BME280;62813;51.424;6.762;2022-08-21T13:27:25;101316.22;;;26.74;39.02
9009;BME280;62813;51.424;6.762;2022-08-21T13:30:08;101313.03;;;26.96;37.65
9009;BME280;62813;51.424;6.762;2022-08-21T13:32:41;101311.88;;;27.17;37.04
9009;BME280;62813;51.424;6.762;2022-08-21T13:37:44;101306.84;;;27.40;35.13
9009;BME280;62813;51.424;6.762;2022-08-21T13:40:15;101310.09;;;26.82;36.48
9009;BME280;62813;51.424;6.762;2022-08-21T13:42:45;101304.06;;;26.97;36.80
9009;BME280;62813;51.424;6.762;2022-08-21T13:45:16;101311.25;;;27.23;36.56
9009;BME280;62813;51.424;6.762;2022-08-21T13:47:45;101300.06;;;27.53;36.85
9009;BME280;62813;51.424;6.762;2022-08-21T13:50:15;101301.53;;;27.48;36.82
9009;BME280;62813;51.424;6.762;2022-08-21T13:52:56;101298.84;;;27.40;36.55
9009;BME280;62813;51.424;6.762;2022-08-21T13:55:24;101307.84;;;27.13;36.80
9009;BME280;62813;51.424;6.762;2022-08-21T13:57:59;101303.38;;;27.13;36.70
9009;BME280;62813;51.424;6.762;2022-08-21T14:00:29;101310.22;;;27.16;36.89
9009;BME280;62813;51.424;6.762;2022-08-21T14:03:08;101308.28;;;26.82;36.43
9009;BME280;62813;51.424;6.762;2022-08-21T14:05:45;101302.81;;;26.66;35.61
9009;BME280;62813;51.424;6.762;2022-08-21T14:08:15;101305.50;;;26.66;35.55
9009;BME280;62813;51.424;6.762;2022-08-21T14:10:55;101311.81;;;26.65;36.55
9009;BME280;62813;51.424;6.762;2022-08-21T14:16:18;101299.88;;;26.51;37.67
9009;BME280;62813;51.424;6.762;2022-08-21T14:21:39;101309.50;;;26.70;37.96
9009;BME280;62813;51.424;6.762;2022-08-21T14:24:10;101304.94;;;26.80;38.20